Time;durP1;ratioP1;P1;durP2;ratioP2;P2;SDS_P1;SDS_P2;PMS_P1;PMS_P2;Temp;Humidity;BMP_temperature;BMP_pressure;BME280_temperature;BME280_humidity;BME280_pressure;Samples;Min_cycle;Max_cycle;Signal;HPM_P1;HPM_P2
2022/03/22 00:00:00;;;;;;;19.42;13.25;;;;;;;10.54;40.04;101431.53;4952528;28;20362;-84
2022/03/22 00:02:38;;;;;;;25.77;13.52;;;;;;;10.49;39.82;101433.63;4984639;28;20051;-83
2022/03/22 00:05:05;;;;;;;44.10;18.48;;;;;;;10.46;39.88;101433.78;4967383;28;20047;-85
2022/03/22 00:07:33;;;;;;;38.22;16.98;;;;;;;10.44;39.80;101425.94;4972024;28;20418;-84
2022/03/22 00:10:00;;;;;;;37.33;16.88;;;;;;;10.41;40.03;101434.09;4958047;28;20041;-85
2022/03/22 00:12:28;;;;;;;38.80;16.45;;;;;;;10.40;40.07;101432.38;4975245;28;20049;-84
2022/03/22 00:14:55;;;;;;;35.10;15.73;;;;;;;10.36;40.09;101430.88;4998325;28;20062;-84
2022/03/22 00:17:42;;;;;;;27.13;13.52;;;;;;;10.32;40.02;101435.50;4977441;28;20465;-84
2022/03/22 00:20:10;;;;;;;20.40;12.13;;;;;;;10.31;40.15;101440.91;4952738;28;20049;-84
2022/03/22 00:22:38;;;;;;;24.40;13.45;;;;;;;10.29;39.84;101434.84;5009644;28;20100;-84
2022/03/22 00:25:09;;;;;;;24.08;13.30;;;;;;;10.20;40.03;101444.19;5017692;28;20125;-85
2022/03/22 00:28:11;;;;;;;22.95;13.68;;;;;;;10.18;40.02;101451.41;4996197;28;20073;-84
2022/03/22 00:30:32;;;;;;;21.55;13.40;;;;;;;10.12;40.21;101446.44;4941364;28;20042;-84
2022/03/22 00:33:01;;;;;;;23.35;13.75;;;;;;;10.11;40.15;101442.09;4947785;28;20058;-84
2022/03/22 00:35:30;;;;;;;22.83;14.60;;;;;;;10.09;40.39;101438.69;4985641;28;20052;-84
2022/03/22 00:37:59;;;;;;;25.58;14.35;;;;;;;10.08;40.36;101434.34;4988994;28;20056;-84
2022/03/22 00:40:27;;;;;;;21.65;13.82;;;;;;;10.07;40.55;101435.25;4978352;28;20509;-84
2022/03/22 00:42:56;;;;;;;25.25;14.57;;;;;;;10.05;40.94;101422.09;4978810;28;20058;-84
2022/03/22 00:45:33;;;;;;;23.15;14.27;;;;;;;10.00;40.88;101430.34;4967086;28;20078;-85
2022/03/22 00:48:01;;;;;;;20.10;13.15;;;;;;;9.99;40.70;101428.63;5000620;28;20042;-84
2022/03/22 00:50:31;;;;;;;25.10;13.95;;;;;;;9.96;40.64;101428.81;4970094;28;20132;-84
2022/03/22 00:52:58;;;;;;;21.70;12.98;;;;;;;9.95;40.58;101428.91;4988133;28;20541;-84
2022/03/22 00:55:27;;;;;;;22.05;13.40;;;;;;;9.93;40.60;101423.69;4982736;28;20151;-83
2022/03/22 00:57:55;;;;;;;23.25;14.13;;;;;;;9.91;40.86;101424.72;4963080;28;20554;-84
2022/03/22 01:00:24;;;;;;;25.30;14.52;;;;;;;9.88;40.90;101423.13;4981517;28;20046;-84
2022/03/22 01:02:59;;;;;;;20.98;14.00;;;;;;;9.85;40.85;101422.47;4984623;28;20050;-84
2022/03/22 01:09:37;;;;;;;21.50;13.65;;;;;;;9.67;41.01;101416.44;4962516;28;20034;-83
2022/03/22 01:12:04;;;;;;;22.70;13.50;;;;;;;9.67;41.11;101413.78;4970025;28;20046;-84
2022/03/22 01:14:31;;;;;;;21.00;12.75;;;;;;;9.63;41.07;101415.75;5005228;28;20520;-84
2022/03/22 01:16:58;;;;;;;19.15;11.98;;;;;;;9.63;41.08;101417.56;4997470;28;20049;-84
2022/03/22 01:19:28;;;;;;;20.30;12.23;;;;;;;9.62;41.14;101411.41;4971941;28;20045;-85
2022/03/22 01:21:55;;;;;;;20.20;11.68;;;;;;;9.61;41.21;101414.16;5020250;28;20049;-84
2022/03/22 01:24:22;;;;;;;20.70;11.73;;;;;;;9.59;41.09;101411.56;4948625;28;20494;-84
2022/03/22 01:26:49;;;;;;;19.20;12.07;;;;;;;9.59;41.48;101403.63;4994475;28;20134;-84
2022/03/22 01:29:16;;;;;;;18.90;11.73;;;;;;;9.57;41.32;101402.88;4968020;28;20463;-84
2022/03/22 01:31:44;;;;;;;20.25;11.40;;;;;;;9.57;41.48;101408.19;4988209;28;20493;-84
2022/03/22 01:37:57;;;;;;;20.02;11.43;;;;;;;9.46;41.76;101405.28;4931584;28;20049;-84
2022/03/22 01:40:26;;;;;;;18.20;11.38;;;;;;;9.46;41.83;101408.78;4975638;28;20081;-83
2022/03/22 01:42:54;;;;;;;20.45;11.65;;;;;;;9.45;41.77;101414.19;4961509;28;20057;-84
2022/03/22 01:45:20;;;;;;;18.58;12.13;;;;;;;9.42;41.99;101417.03;4993627;28;20057;-84
2022/03/22 01:47:49;;;;;;;20.83;12.68;;;;;;;9.41;41.94;101405.56;4983949;28;20049;-84
2022/03/22 01:50:17;;;;;;;24.35;11.13;;;;;;;9.37;42.02;101405.84;4972167;28;20383;-84
2022/03/22 01:52:44;;;;;;;19.90;12.45;;;;;;;9.37;42.11;101408.50;4991048;28;20049;-83
2022/03/22 01:55:14;;;;;;;18.80;12.35;;;;;;;9.33;42.33;101399.84;5000451;28;20041;-84
2022/03/22 01:57:41;;;;;;;19.35;12.18;;;;;;;9.31;42.16;101401.72;4989734;28;20046;-84
2022/03/22 02:00:21;;;;;;;20.27;11.95;;;;;;;9.25;42.51;101394.16;5009858;28;20050;-84
2022/03/22 02:08:34;;;;;;;21.85;12.30;;;;;;;9.19;42.49;101391.88;4921144;28;20099;-84
2022/03/22 02:11:01;;;;;;;20.90;11.93;;;;;;;9.18;42.49;101385.69;5003108;28;20052;-83
2022/03/22 02:13:29;;;;;;;18.75;11.85;;;;;;;9.17;42.71;101391.94;4965345;28;20367;-83
2022/03/22 02:15:58;;;;;;;21.23;12.68;;;;;;;9.15;42.44;101385.88;4993178;28;20053;-84
2022/03/22 02:18:25;;;;;;;21.60;12.38;;;;;;;9.12;42.75;101381.59;4981080;28;20556;-84
2022/03/22 02:20:52;;;;;;;21.10;12.48;;;;;;;9.12;42.86;101386.06;4969164;28;20038;-84
2022/03/22 02:23:34;;;;;;;22.38;11.73;;;;;;;9.05;43.10;101376.75;4982431;28;20077;-83
2022/03/22 02:26:01;;;;;;;22.38;12.73;;;;;;;9.04;42.63;101386.50;4987400;28;20133;-83
2022/03/22 02:28:29;;;;;;;18.02;12.18;;;;;;;9.03;42.99;101386.56;4991391;28;20085;-84
2022/03/22 02:30:56;;;;;;;18.88;11.40;;;;;;;9.02;42.87;101384.88;4971043;28;20390;-84
2022/03/22 02:33:23;;;;;;;21.85;12.00;;;;;;;9.00;42.83;101378.81;5024918;28;20038;-84
2022/03/22 02:35:51;;;;;;;22.55;11.93;;;;;;;8.97;43.00;101382.47;4977356;28;20493;-84
2022/03/22 02:38:18;;;;;;;22.35;12.38;;;;;;;8.96;42.99;101382.59;4970779;28;20049;-84
2022/03/22 02:40:45;;;;;;;19.95;12.60;;;;;;;8.94;42.96;101382.66;4979930;28;20053;-84
2022/03/22 02:43:12;;;;;;;21.48;11.90;;;;;;;8.90;43.00;101386.41;4999284;28;20144;-83
2022/03/22 02:45:39;;;;;;;17.92;11.40;;;;;;;8.87;42.66;101379.50;5003235;28;20096;-84
2022/03/22 02:48:06;;;;;;;19.88;11.57;;;;;;;8.84;42.97;101386.78;5001481;28;20038;-84
2022/03/22 02:50:32;;;;;;;18.85;11.60;;;;;;;8.81;43.15;101395.75;5004472;28;20560;-84
2022/03/22 02:53:01;;;;;;;18.98;11.30;;;;;;;8.79;42.89;101387.03;4984746;28;20076;-84
2022/03/22 02:55:28;;;;;;;19.50;11.93;;;;;;;8.76;43.13;101389.84;4973933;28;20497;-84
2022/03/22 02:57:55;;;;;;;23.52;11.52;;;;;;;8.74;43.04;101390.88;4991239;28;20045;-84
2022/03/22 03:00:23;;;;;;;19.92;11.40;;;;;;;8.72;43.18;101390.09;4985486;28;20045;-84
2022/03/22 03:02:51;;;;;;;19.48;11.20;;;;;;;8.68;43.26;101384.13;4999516;28;20042;-84
2022/03/22 03:05:20;;;;;;;20.52;11.35;;;;;;;8.67;43.18;101383.25;4996591;28;20064;-84
2022/03/22 03:07:48;;;;;;;19.55;10.73;;;;;;;8.64;43.49;101388.72;4994704;28;20133;-84
2022/03/22 03:10:15;;;;;;;18.38;11.27;;;;;;;8.62;43.29;101389.75;4992476;28;20140;-84
2022/03/22 03:12:42;;;;;;;17.27;10.30;;;;;;;8.60;43.55;101386.31;4997140;28;20038;-84
2022/03/22 03:15:09;;;;;;;22.10;11.98;;;;;;;8.59;43.59;101390.78;4993714;28;20050;-84
2022/03/22 03:17:37;;;;;;;17.08;11.00;;;;;;;8.57;43.38;101397.09;4989187;28;20050;-83
2022/03/22 03:20:05;;;;;;;20.38;12.10;;;;;;;8.54;43.71;101390.19;4966856;28;20041;-84
2022/03/22 03:22:32;;;;;;;16.90;11.25;;;;;;;8.51;43.64;101393.00;4993551;28;20378;-84
2022/03/22 03:24:59;;;;;;;17.63;11.18;;;;;;;8.51;43.90;101398.28;5010196;28;20049;-84
2022/03/22 03:27:26;;;;;;;18.50;11.18;;;;;;;8.49;44.21;101392.22;4998049;28;20069;-84
2022/03/22 03:29:53;;;;;;;19.20;12.10;;;;;;;8.47;44.15;101400.25;4984427;28;20121;-84
2022/03/22 03:32:20;;;;;;;17.90;11.25;;;;;;;8.45;44.24;101403.94;4978334;28;20046;-84
2022/03/22 03:34:46;;;;;;;21.48;11.63;;;;;;;8.44;44.10;101404.84;4982824;28;20056;-84
2022/03/22 03:37:15;;;;;;;22.92;12.15;;;;;;;8.42;44.35;101409.38;4988728;28;20053;-84
2022/03/22 03:39:42;;;;;;;21.23;12.52;;;;;;;8.41;44.21;101400.59;4990482;28;20489;-84
2022/03/22 03:42:09;;;;;;;20.00;11.60;;;;;;;8.38;44.37;101403.38;4966154;28;25844;-84
2022/03/22 03:47:22;;;;;;;19.13;11.68;;;;;;;8.35;44.42;101411.47;4978073;28;20057;-83
2022/03/22 03:49:55;;;;;;;19.90;11.63;;;;;;;8.34;44.18;101419.50;4986150;28;20494;-84
2022/03/22 03:52:26;;;;;;;19.48;11.10;;;;;;;8.30;44.63;101412.69;4989982;28;20046;-83
2022/03/22 03:54:53;;;;;;;19.23;11.20;;;;;;;8.30;44.28;101424.09;4991713;28;20065;-83
2022/03/22 03:57:21;;;;;;;21.33;11.20;;;;;;;8.29;44.12;101424.19;4989619;28;20042;-84
2022/03/22 03:59:49;;;;;;;19.15;11.45;;;;;;;8.27;44.22;101432.22;4982391;28;20045;-84
2022/03/22 04:02:16;;;;;;;21.92;11.43;;;;;;;8.24;43.99;101427.06;5004476;28;20044;-84
2022/03/22 04:04:44;;;;;;;19.63;11.48;;;;;;;8.22;44.07;101424.53;5000497;28;20045;-84
2022/03/22 04:07:12;;;;;;;19.02;11.18;;;;;;;8.23;44.29;101428.00;4986708;28;20045;-84
2022/03/22 04:09:39;;;;;;;20.65;11.23;;;;;;;8.21;44.20;101425.44;5005775;28;20045;-84
2022/03/22 04:12:06;;;;;;;16.42;10.73;;;;;;;8.18;44.20;101433.53;4960902;28;20057;-84
2022/03/22 04:14:33;;;;;;;20.10;11.00;;;;;;;8.15;44.06;101428.41;5017239;28;20555;-84
2022/03/22 04:17:00;;;;;;;19.58;11.80;;;;;;;8.13;43.83;101427.63;4996021;28;20387;-84
2022/03/22 04:19:27;;;;;;;19.58;10.90;;;;;;;8.11;44.29;101426.84;4971267;28;20401;-83
2022/03/22 04:21:54;;;;;;;18.70;11.05;;;;;;;8.10;44.22;101426.97;4970241;28;20085;-84
2022/03/22 04:25:16;;;;;;;17.30;10.63;;;;;;;7.96;44.24;101431.19;4986016;28;20045;-83
2022/03/22 04:33:18;;;;;;;18.65;11.00;;;;;;;7.96;44.28;101425.91;4978753;28;20502;-83
2022/03/22 04:35:45;;;;;;;19.58;10.73;;;;;;;7.96;44.46;101428.53;4967386;28;20043;-83
2022/03/22 04:38:12;;;;;;;16.50;9.95;;;;;;;7.93;44.25;101423.38;5001428;28;20045;-83
2022/03/22 04:40:40;;;;;;;17.50;10.88;;;;;;;7.92;44.27;101423.50;4987713;28;20076;-83
2022/03/22 04:43:07;;;;;;;20.45;11.70;;;;;;;7.89;44.59;101424.50;4958012;28;20049;-83
2022/03/22 04:45:35;;;;;;;17.40;10.85;;;;;;;7.88;44.43;101430.69;4957949;28;20101;-83
2022/03/22 04:48:02;;;;;;;19.10;11.07;;;;;;;7.85;44.36;101424.72;4993033;28;20043;-83
2022/03/22 04:50:29;;;;;;;19.48;12.65;;;;;;;7.85;44.64;101437.97;5005988;28;20076;-83
2022/03/22 04:58:35;;;;;;;20.15;10.43;;;;;;;7.77;45.01;101438.34;4959105;28;20063;-88
2022/03/22 05:01:04;;;;;;;17.17;10.57;;;;;;;7.75;44.46;101438.41;4993428;28;20635;-88
2022/03/22 05:03:31;;;;;;;18.88;11.18;;;;;;;7.73;44.87;101442.06;5002914;28;20081;-86
2022/03/22 05:12:59;;;;;;;18.55;10.13;;;;;;;7.57;44.95;101437.56;4986934;28;20385;-86
2022/03/22 05:15:26;;;;;;;19.73;11.43;;;;;;;7.58;44.87;101444.56;5002557;28;20037;-88
2022/03/22 05:17:58;;;;;;;20.92;10.98;;;;;;;7.54;44.99;101443.00;5009322;28;20048;-87
2022/03/22 05:20:26;;;;;;;19.98;10.75;;;;;;;7.55;45.45;101450.00;4987923;28;20065;-87
2022/03/22 05:23:21;;;;;;;19.13;11.45;;;;;;;7.46;45.96;101449.63;4956422;28;20056;-86
2022/03/22 05:33:36;;;;;;;;;;;;;;;7.25;46.13;101452.38;4978618;28;20042;-91
2022/03/22 05:36:04;;;;;;;25.65;10.98;;;;;;;7.40;45.15;101453.41;4968155;28;19949;-91
2022/03/22 05:38:32;;;;;;;21.58;11.80;;;;;;;7.44;45.36;101462.06;4988416;28;20137;-89
2022/03/22 05:41:02;;;;;;;18.83;10.27;;;;;;;7.42;45.42;101454.19;5003804;28;20488;-91
2022/03/22 05:43:29;;;;;;;21.02;12.00;;;;;;;7.43;45.53;101462.97;4991996;28;20049;-90
2022/03/22 05:45:56;;;;;;;20.08;11.05;;;;;;;7.42;46.00;101463.91;4986795;28;20605;-89
2022/03/22 05:48:23;;;;;;;15.48;10.60;;;;;;;7.39;46.30;101465.75;4962469;28;20053;-90
2022/03/22 05:50:50;;;;;;;17.90;11.00;;;;;;;7.35;46.46;101463.34;4971154;28;20184;-90
2022/03/22 05:53:17;;;;;;;19.27;11.18;;;;;;;7.34;46.46;101462.50;4973185;28;20083;-89
2022/03/22 05:55:44;;;;;;;18.75;11.13;;;;;;;7.32;46.75;101466.13;5006246;28;20049;-90
2022/03/22 05:58:11;;;;;;;19.02;11.30;;;;;;;7.32;46.64;101463.50;4999763;28;20045;-90
2022/03/22 06:00:38;;;;;;;18.35;11.50;;;;;;;7.31;47.05;101454.72;4984398;28;20050;-87
2022/03/22 06:03:05;;;;;;;21.27;11.75;;;;;;;7.29;46.86;101461.84;5009623;28;20052;-90
2022/03/22 06:05:32;;;;;;;18.98;10.70;;;;;;;7.28;46.87;101460.16;4977076;28;20042;-91
2022/03/22 06:08:00;;;;;;;19.80;11.73;;;;;;;7.28;47.10;101461.94;4983818;28;20435;-89
2022/03/22 06:10:28;;;;;;;22.88;11.40;;;;;;;7.27;47.16;101457.56;4961225;28;20563;-90
2022/03/22 06:12:56;;;;;;;20.23;10.95;;;;;;;7.28;47.48;101448.75;5010755;28;20531;-90
2022/03/22 06:15:25;;;;;;;17.55;10.65;;;;;;;7.27;47.50;101462.88;4998832;28;20045;-91
2022/03/22 06:17:57;;;;;;;22.05;12.27;;;;;;;7.26;47.44;101459.38;5005432;28;20045;-90
2022/03/22 06:20:33;;;;;;;24.13;12.63;;;;;;;7.21;48.31;101460.53;4953148;28;20122;-90
2022/03/22 06:23:02;;;;;;;25.65;13.13;;;;;;;7.27;47.49;101457.56;4986535;28;20048;-91
2022/03/22 06:25:29;;;;;;;21.70;12.52;;;;;;;7.27;47.95;101457.56;4984003;28;20472;-90
2022/03/22 06:27:56;;;;;;;23.35;11.27;;;;;;;7.29;48.05;101458.38;4990675;28;20042;-90
2022/03/22 06:30:25;;;;;;;24.20;13.23;;;;;;;7.30;48.03;101457.41;5002530;28;20057;-91
2022/03/22 06:32:57;;;;;;;31.58;13.57;;;;;;;7.31;48.00;101453.88;5004365;28;20568;-91
2022/03/22 06:35:26;;;;;;;31.80;14.48;;;;;;;7.28;47.93;101464.59;4993345;28;20084;-90
2022/03/22 06:37:54;;;;;;;25.80;12.60;;;;;;;7.29;47.97;101461.84;4977204;28;20503;-91
2022/03/22 06:40:22;;;;;;;29.35;14.63;;;;;;;7.22;48.36;101457.78;5003988;28;20124;-90
2022/03/22 06:42:49;;;;;;;27.80;13.95;;;;;;;7.24;48.54;101469.16;4986520;28;20037;-90
2022/03/22 06:45:16;;;;;;;27.90;13.65;;;;;;;7.21;48.69;101473.75;4998556;28;20045;-88
2022/03/22 06:47:43;;;;;;;24.30;14.18;;;;;;;7.20;48.15;101469.38;4989792;28;20103;-91
2022/03/22 06:50:14;;;;;;;25.85;13.75;;;;;;;7.14;48.36;101476.66;4983079;28;20402;-90
2022/03/22 06:52:41;;;;;;;24.13;13.75;;;;;;;7.17;47.62;101481.81;4967665;28;20580;-91
2022/03/22 06:55:08;;;;;;;35.08;18.05;;;;;;;7.14;48.47;101479.31;4994485;28;20069;-91
2022/03/22 06:57:36;;;;;;;30.67;17.13;;;;;;;7.16;49.11;101476.59;4976018;28;20061;-89
2022/03/22 07:00:05;;;;;;;26.77;15.57;;;;;;;7.13;48.96;101477.59;4999761;28;20556;-89
2022/03/22 07:02:32;;;;;;;29.75;15.70;;;;;;;7.14;49.60;101475.81;5002016;28;20200;-91
2022/03/22 07:05:00;;;;;;;19.27;12.40;;;;;;;7.21;47.97;101479.88;5004386;28;20049;-90
2022/03/22 07:07:26;;;;;;;26.27;14.93;;;;;;;7.17;49.60;101487.09;4985551;28;20046;-89
2022/03/22 07:09:53;;;;;;;20.95;11.90;;;;;;;7.15;47.52;101490.75;4991364;28;20060;-90
2022/03/22 07:12:20;;;;;;;22.98;12.35;;;;;;;7.16;46.68;101482.72;4989446;28;20041;-90
2022/03/22 07:14:47;;;;;;;18.73;11.75;;;;;;;7.26;46.60;101480.50;5004976;28;20038;-85
2022/03/22 07:17:43;;;;;;;21.95;12.35;;;;;;;7.22;45.93;101483.38;5001398;28;20052;-90
2022/03/22 07:20:10;;;;;;;21.73;12.65;;;;;;;7.39;45.77;101494.84;4955549;28;20054;-90
2022/03/22 07:22:37;;;;;;;26.27;12.32;;;;;;;7.42;45.59;101495.63;4970617;28;20142;-91
2022/03/22 07:25:04;;;;;;;22.92;12.10;;;;;;;7.42;45.19;101500.91;5000351;28;20061;-90
2022/03/22 07:27:32;;;;;;;19.65;11.98;;;;;;;7.39;45.35;101486.91;4999381;28;20674;-90
2022/03/22 07:30:00;;;;;;;21.88;12.05;;;;;;;7.40;45.34;101493.03;4989557;28;20057;-91
2022/03/22 07:32:28;;;;;;;20.75;11.73;;;;;;;7.49;44.89;101492.59;5011613;28;20046;-91
2022/03/22 07:35:00;;;;;;;21.30;11.40;;;;;;;7.51;44.97;101492.53;5013939;28;20160;-91
2022/03/22 07:37:31;;;;;;;22.92;13.77;;;;;;;7.41;45.29;101486.00;4987412;28;20393;-90
2022/03/22 07:39:58;;;;;;;20.75;12.13;;;;;;;7.38;45.42;101498.41;4986013;28;20045;-91
2022/03/22 07:42:29;;;;;;;22.30;12.52;;;;;;;7.46;45.29;101484.81;5004504;28;20063;-90
2022/03/22 07:44:57;;;;;;;22.58;12.50;;;;;;;7.42;45.12;101491.19;4994718;28;20117;-91
2022/03/22 07:47:26;;;;;;;23.48;13.05;;;;;;;7.48;45.46;101482.97;5006520;28;20096;-90
2022/03/22 07:55:24;;;;;;;22.58;12.35;;;;;;;7.49;44.92;101486.47;4984820;28;20045;-89
2022/03/22 07:57:51;;;;;;;21.33;11.80;;;;;;;7.59;45.32;101490.38;5007875;28;20045;-91
2022/03/22 08:00:21;;;;;;;20.17;12.00;;;;;;;7.60;44.99;101482.34;4977724;28;20042;-91
2022/03/22 08:03:03;;;;;;;17.00;11.77;;;;;;;7.55;45.18;101481.72;4946614;28;20057;-91
2022/03/22 08:05:32;;;;;;;22.70;12.00;;;;;;;7.58;45.24;101483.34;4963437;28;20504;-90
2022/03/22 08:07:59;;;;;;;18.63;11.25;;;;;;;7.67;44.95;101484.69;4966914;28;20038;-91
2022/03/22 08:10:46;;;;;;;19.63;11.48;;;;;;;7.73;44.73;101482.59;4964168;28;20045;-90
2022/03/22 08:13:13;;;;;;;22.15;11.98;;;;;;;7.73;45.13;101495.81;4975258;28;20046;-90
2022/03/22 08:15:40;;;;;;;17.35;11.15;;;;;;;7.70;44.94;101489.81;4994326;28;20057;-91
2022/03/22 08:18:10;;;;;;;19.45;12.18;;;;;;;7.71;45.41;101494.16;4991338;28;20049;-91
2022/03/22 08:20:37;;;;;;;21.40;11.27;;;;;;;7.74;44.63;101484.31;4988972;28;20076;-91
2022/03/22 08:23:04;;;;;;;25.05;13.00;;;;;;;7.80;44.80;101485.78;4996278;28;20217;-91
2022/03/22 08:25:32;;;;;;;18.35;11.52;;;;;;;7.83;45.36;101488.28;4998882;28;20511;-91
2022/03/22 08:28:00;;;;;;;21.73;11.38;;;;;;;7.83;44.88;101483.81;4994115;28;20188;-91
2022/03/22 08:30:28;;;;;;;20.50;11.40;;;;;;;7.89;45.03;101480.03;4977632;28;20131;-90
2022/03/22 08:33:05;;;;;;;16.88;10.95;;;;;;;7.90;44.82;101487.03;4995379;28;20049;-91
2022/03/22 08:35:32;;;;;;;19.52;11.68;;;;;;;7.92;44.84;101485.16;5009357;28;20493;-91
2022/03/22 08:37:59;;;;;;;18.60;12.25;;;;;;;7.94;44.55;101480.66;5007813;28;20591;-84
2022/03/22 08:40:25;;;;;;;20.67;10.50;;;;;;;7.95;44.11;101484.16;4976353;28;20398;-91
2022/03/22 08:42:53;;;;;;;17.35;10.48;;;;;;;8.05;43.39;101480.09;4982672;28;20050;-90
2022/03/22 08:45:23;;;;;;;18.25;10.73;;;;;;;8.10;43.51;101474.59;5014093;28;20100;-89
2022/03/22 08:47:52;;;;;;;18.95;11.02;;;;;;;8.17;43.31;101481.28;5011105;28;20095;-90
2022/03/22 08:50:25;;;;;;;17.48;10.80;;;;;;;8.11;43.62;101485.06;4974301;28;20114;-90
2022/03/22 08:52:56;;;;;;;19.80;10.75;;;;;;;8.11;43.34;101484.22;5012359;28;20049;-90
2022/03/22 08:55:24;;;;;;;16.52;10.50;;;;;;;8.22;44.07;101474.78;4984611;28;20104;-90
2022/03/22 08:57:52;;;;;;;15.48;9.75;;;;;;;8.22;44.21;101477.44;4980697;28;20067;-88
2022/03/22 09:00:19;;;;;;;15.93;10.43;;;;;;;8.33;43.78;101473.38;4995590;28;20104;-90
2022/03/22 09:02:49;;;;;;;17.40;10.63;;;;;;;8.29;43.72;101466.53;5012182;28;20045;-90
2022/03/22 09:08:05;;;;;;;18.75;11.43;;;;;;;8.35;43.99;101469.72;5001697;28;20049;-91
2022/03/22 09:10:39;;;;;;;18.38;10.55;;;;;;;8.39;43.39;101459.81;4995122;28;20101;-92
2022/03/22 09:13:07;;;;;;;15.60;9.98;;;;;;;8.34;43.46;101464.50;4977745;28;20046;-92
2022/03/22 09:15:36;;;;;;;16.20;10.00;;;;;;;8.43;43.34;101466.69;4968365;28;20046;-90
2022/03/22 09:18:03;;;;;;;17.45;10.70;;;;;;;8.42;43.44;101467.59;4986867;28;20559;-93
2022/03/22 09:20:32;;;;;;;14.57;9.77;;;;;;;8.45;43.29;101460.38;4996527;28;20037;-93
2022/03/22 09:23:01;;;;;;;17.08;10.38;;;;;;;8.47;43.68;101461.16;4984969;28;20579;-92
2022/03/22 09:25:28;;;;;;;17.88;10.35;;;;;;;8.47;43.19;101463.81;4954611;28;20112;-93
2022/03/22 09:27:56;;;;;;;20.98;10.82;;;;;;;8.59;42.87;101464.91;4978692;28;20420;-91
2022/03/22 09:30:24;;;;;;;18.05;9.60;;;;;;;8.53;42.30;101461.75;4976974;28;20104;-91
2022/03/22 09:32:51;;;;;;;18.38;11.13;;;;;;;8.67;42.31;101456.56;4982850;28;20104;-92
2022/03/22 09:35:19;;;;;;;19.45;10.50;;;;;;;8.63;42.58;101465.63;4982118;28;20117;-92
2022/03/22 09:37:47;;;;;;;14.93;10.13;;;;;;;8.59;42.46;101458.78;5013733;28;20053;-92
2022/03/22 09:40:16;;;;;;;18.15;11.27;;;;;;;8.71;43.06;101457.25;5009801;28;20053;-90
2022/03/22 09:42:45;;;;;;;17.73;10.55;;;;;;;8.71;43.29;101452.81;4969404;28;20069;-91
2022/03/22 09:45:14;;;;;;;16.30;10.90;;;;;;;8.71;43.52;101450.16;4976205;28;20409;-90
2022/03/22 09:47:42;;;;;;;17.83;10.82;;;;;;;8.74;43.70;101447.34;5017282;28;20047;-92
2022/03/22 09:50:10;;;;;;;17.20;10.75;;;;;;;8.77;43.18;101446.31;4980329;28;20104;-91
2022/03/22 09:52:37;;;;;;;15.52;9.55;;;;;;;8.73;43.31;101456.25;4983593;28;20129;-92
2022/03/22 09:55:06;;;;;;;20.05;11.52;;;;;;;8.74;43.28;101444.69;4981994;28;20046;-91
2022/03/22 09:57:33;;;;;;;18.63;10.77;;;;;;;8.80;43.07;101443.50;5000807;28;20065;-92
2022/03/22 10:00:00;;;;;;;15.20;10.10;;;;;;;8.86;43.23;101448.47;4997952;28;20048;-91
2022/03/22 10:02:38;;;;;;;17.98;11.10;;;;;;;8.88;43.38;101438.66;4973018;28;20054;-91
2022/03/22 10:05:06;;;;;;;16.05;10.95;;;;;;;8.94;42.89;101448.03;4963969;28;20041;-92
2022/03/22 10:07:35;;;;;;;18.83;10.52;;;;;;;8.94;42.10;101445.41;4979804;28;20042;-91
2022/03/22 10:10:06;;;;;;;16.90;9.68;;;;;;;8.98;42.47;101442.50;4992044;28;20119;-92
2022/03/22 10:12:37;;;;;;;20.40;10.38;;;;;;;9.30;40.88;101437.16;4987659;28;20093;-92
2022/03/22 10:15:14;;;;;;;16.88;10.27;;;;;;;9.32;41.08;101435.28;5006616;28;20046;-92
2022/03/22 10:17:43;;;;;;;16.15;10.27;;;;;;;9.29;41.38;101425.69;4997098;28;20052;-92
2022/03/22 10:20:25;;;;;;;17.55;9.73;;;;;;;9.11;41.38;101427.59;4998341;28;20096;-92
2022/03/22 10:22:59;;;;;;;17.73;10.65;;;;;;;9.34;41.32;101423.63;4950867;28;20070;-92
2022/03/22 10:25:32;;;;;;;19.02;10.95;;;;;;;9.33;41.47;101418.41;4980406;28;20043;-92
2022/03/22 10:28:02;;;;;;;14.57;10.07;;;;;;;9.64;41.10;101420.13;5014278;28;20497;-92
2022/03/22 10:30:30;;;;;;;21.02;10.95;;;;;;;9.50;40.86;101410.31;4959245;28;20044;-92
2022/03/22 10:32:57;;;;;;;18.73;11.00;;;;;;;9.43;41.11;101418.72;4989869;28;20061;-93
2022/03/22 10:35:28;;;;;;;18.65;9.70;;;;;;;9.42;41.27;101414.38;4970050;28;20070;-92
2022/03/22 10:38:00;;;;;;;14.65;10.05;;;;;;;9.38;41.03;101410.19;4987341;28;20064;-93
2022/03/22 10:40:44;;;;;;;22.27;10.57;;;;;;;9.38;40.49;101412.84;4955492;28;20045;-91
2022/03/22 10:43:23;;;;;;;16.08;10.10;;;;;;;9.69;40.57;101410.09;4977119;28;20073;-91
2022/03/22 10:46:00;;;;;;;13.93;9.73;;;;;;;9.44;41.02;101409.81;4999762;28;20042;-91
2022/03/22 10:48:30;;;;;;;19.00;10.98;;;;;;;9.53;40.88;101417.25;4986526;28;20037;-91
2022/03/22 10:50:59;;;;;;;17.27;10.35;;;;;;;9.57;41.52;101403.72;4987225;28;20116;-89
2022/03/22 10:53:28;;;;;;;15.40;10.07;;;;;;;9.67;41.00;101409.34;4986381;28;20148;-90
2022/03/22 10:56:00;;;;;;;16.27;10.52;;;;;;;9.62;41.36;101403.47;5012396;28;20051;-91
2022/03/22 10:58:27;;;;;;;19.77;11.60;;;;;;;9.84;40.65;101405.66;4972929;28;20451;-90
2022/03/22 11:00:55;;;;;;;14.85;10.18;;;;;;;9.87;40.86;101397.53;5003787;28;20038;-91
2022/03/22 11:03:24;;;;;;;17.17;10.90;;;;;;;9.74;40.92;101404.50;4987788;28;20664;-91
2022/03/22 11:05:52;;;;;;;20.02;11.35;;;;;;;9.98;41.81;101396.88;4985349;28;20049;-92
2022/03/22 11:08:25;;;;;;;14.30;10.68;;;;;;;9.98;41.63;101400.38;4972033;28;20412;-92
2022/03/22 11:10:56;;;;;;;15.73;10.73;;;;;;;10.07;41.62;101396.28;5004628;28;20092;-90
2022/03/22 11:13:23;;;;;;;18.52;11.77;;;;;;;10.13;40.83;101397.75;5000946;28;20496;-91
2022/03/22 11:15:51;;;;;;;18.50;10.60;;;;;;;10.04;41.15;101388.53;5014435;28;20042;-90
2022/03/22 11:18:20;;;;;;;18.88;11.52;;;;;;;10.11;40.98;101395.16;4987654;28;20046;-91
2022/03/22 11:20:55;;;;;;;16.80;11.30;;;;;;;10.07;40.75;101393.66;4982265;28;20045;-91
2022/03/22 11:23:32;;;;;;;17.95;9.98;;;;;;;9.99;40.56;101387.97;4971764;28;20049;-91
2022/03/22 11:26:17;;;;;;;17.15;11.48;;;;;;;10.04;41.07;101391.19;4993126;28;20060;-92
2022/03/22 11:28:46;;;;;;;20.98;11.23;;;;;;;10.17;41.49;101384.16;4971197;28;20121;-91
2022/03/22 11:31:20;;;;;;;20.88;12.00;;;;;;;10.21;41.48;101376.88;5016863;28;20445;-92
2022/03/22 11:36:45;;;;;;;19.08;11.73;;;;;;;10.32;41.10;101369.13;4970527;28;20060;-90
2022/03/22 11:42:15;;;;;;;19.15;11.95;;;;;;;10.42;41.08;101369.41;4985207;28;20142;-88
2022/03/22 11:42:34;;;;;;;18.02;11.77;;;;;;;10.19;40.85;101369.00;4994814;28;20042;-92
2022/03/22 11:45:07;;;;;;;21.33;11.93;;;;;;;10.34;41.14;101366.38;4969464;28;20116;-92
2022/03/22 11:47:41;;;;;;;19.88;11.95;;;;;;;10.30;41.01;101364.84;4984905;28;20129;-89
2022/03/22 11:54:19;;;;;;;18.42;11.20;;;;;;;10.34;41.54;101355.75;4970793;28;20030;-92
2022/03/22 11:57:01;;;;;;;18.90;12.02;;;;;;;10.28;41.15;101342.84;5004333;28;20050;-91
2022/03/22 11:59:38;;;;;;;14.77;11.02;;;;;;;10.33;41.72;101352.25;4959736;28;20034;-93
2022/03/22 12:05:49;;;;;;;16.33;10.93;;;;;;;10.45;41.87;101344.44;4978061;28;20056;-88
2022/03/22 12:08:19;;;;;;;19.02;12.57;;;;;;;10.47;41.94;101337.25;5003579;28;20045;-92
2022/03/22 12:10:47;;;;;;;19.73;12.10;;;;;;;10.47;41.91;101334.59;4966618;28;20043;-92
2022/03/22 12:13:14;;;;;;;18.30;11.35;;;;;;;10.45;41.92;101334.66;4973072;28;20050;-92
2022/03/22 12:15:49;;;;;;;15.52;11.00;;;;;;;10.53;41.21;101329.75;4987025;28;20076;-92
2022/03/22 12:18:17;;;;;;;17.25;11.35;;;;;;;10.56;41.32;101332.19;4981875;28;20555;-92
2022/03/22 12:20:44;;;;;;;20.58;12.63;;;;;;;10.61;41.35;101330.09;5016708;28;20037;-92
2022/03/22 12:23:11;;;;;;;15.57;10.90;;;;;;;10.60;41.69;101322.22;4974288;28;20056;-92
2022/03/22 12:25:37;;;;;;;16.05;10.98;;;;;;;10.61;41.96;101319.47;5002052;28;20065;-93
2022/03/22 12:28:07;;;;;;;16.90;11.48;;;;;;;10.81;41.71;101323.50;5005603;28;20430;-92